Time;durP1;ratioP1;P1;durP2;ratioP2;P2;SDS_P1;SDS_P2;PMS_P1;PMS_P2;Temp;Humidity;BMP_temperature;BMP_pressure;BME280_temperature;BME280_humidity;BME280_pressure;Samples;Min_cycle;Max_cycle;Signal;HPM_P1;HPM_P2
2021/01/24 00:02:06;;;;;;;2.30;0.90;;;3.40;99.90;;;;;;4971274;28;20460;-50
2021/01/24 00:04:33;;;;;;;1.27;0.90;;;3.80;99.90;;;;;;4971572;28;20462;-50
2021/01/24 00:06:59;;;;;;;1.47;1.10;;;4.00;99.90;;;;;;4971667;28;20471;-50
2021/01/24 00:09:26;;;;;;;1.30;1.10;;;3.90;99.90;;;;;;4971278;28;20497;-50
2021/01/24 00:11:52;;;;;;;1.40;1.30;;;3.80;99.90;;;;;;4972031;28;20872;-50
2021/01/24 00:14:20;;;;;;;1.20;1.10;;;3.80;99.90;;;;;;4971573;28;20459;-50
2021/01/24 00:16:46;;;;;;;1.10;1.00;;;3.60;99.90;;;;;;4971436;28;20471;-50
2021/01/24 00:19:13;;;;;;;1.40;1.30;;;3.20;99.90;;;;;;4971488;28;20451;-50
2021/01/24 00:21:39;;;;;;;1.00;0.90;;;3.40;99.90;;;;;;4971425;28;20462;-50
2021/01/24 00:24:07;;;;;;;1.03;0.93;;;3.20;99.90;;;;;;4971373;28;20463;-50
2021/01/24 00:26:33;;;;;;;0.87;0.87;;;3.20;99.90;;;;;;4971554;28;21187;-50
2021/01/24 00:29:00;;;;;;;1.20;0.90;;;3.30;99.90;;;;;;4971726;28;20487;-50
2021/01/24 00:31:27;;;;;;;1.10;0.80;;;3.20;99.90;;;;;;4971285;28;20466;-50
2021/01/24 00:33:54;;;;;;;1.47;0.90;;;3.40;99.90;;;;;;4971183;28;20961;-50
2021/01/24 00:36:21;;;;;;;1.40;0.80;;;3.40;99.90;;;;;;4971165;28;20534;-50
2021/01/24 00:38:47;;;;;;;1.30;1.10;;;3.40;99.90;;;;;;4971624;28;20450;-50
2021/01/24 00:41:14;;;;;;;1.20;1.00;;;3.40;99.90;;;;;;4974208;28;20467;-49
2021/01/24 00:43:41;;;;;;;1.50;1.10;;;3.40;99.90;;;;;;4974717;28;20991;-50
2021/01/24 00:46:08;;;;;;;1.83;0.90;;;3.30;99.90;;;;;;4974636;28;20486;-50
2021/01/24 00:48:36;;;;;;;1.80;1.03;;;3.30;99.90;;;;;;4974698;28;20489;-49
2021/01/24 00:51:03;;;;;;;2.67;0.80;;;3.30;99.90;;;;;;4975324;28;20450;-50
2021/01/24 00:53:30;;;;;;;2.43;0.90;;;3.40;99.90;;;;;;4975312;28;20459;-50
2021/01/24 00:55:56;;;;;;;1.33;1.20;;;3.50;99.90;;;;;;4974815;28;20529;-50
2021/01/24 00:58:23;;;;;;;0.60;0.50;;;3.50;99.90;;;;;;4974601;28;20452;-50
2021/01/24 01:00:50;;;;;;;0.60;0.50;;;3.60;99.90;;;;;;4975003;28;21037;-50
2021/01/24 01:03:17;;;;;;;0.60;0.53;;;3.70;99.90;;;;;;4974456;28;20488;-50
2021/01/24 01:05:45;;;;;;;1.73;0.70;;;3.60;99.90;;;;;;4974395;28;20471;-50
2021/01/24 01:08:12;;;;;;;1.27;0.60;;;3.50;99.90;;;;;;4974869;28;20856;-50
2021/01/24 01:10:38;;;;;;;0.90;0.80;;;3.40;99.90;;;;;;4974795;28;20953;-50
2021/01/24 01:13:05;;;;;;;1.03;0.70;;;3.40;99.90;;;;;;4974254;28;20968;-50
2021/01/24 01:15:32;;;;;;;1.70;0.87;;;3.00;99.90;;;;;;4972811;28;20490;-50
2021/01/24 01:17:59;;;;;;;1.07;0.80;;;3.00;99.90;;;;;;4974242;28;20960;-50
2021/01/24 01:20:25;;;;;;;0.83;0.77;;;2.90;99.90;;;;;;4974633;28;20903;-50
2021/01/24 01:22:53;;;;;;;4.73;0.80;;;2.70;99.90;;;;;;4974791;28;20459;-50
2021/01/24 01:25:20;;;;;;;3.43;0.60;;;2.60;99.90;;;;;;4974394;28;20486;-50
2021/01/24 01:27:46;;;;;;;1.07;0.70;;;2.80;99.90;;;;;;4974224;28;20483;-50
2021/01/24 01:30:13;;;;;;;2.50;0.90;;;2.80;99.90;;;;;;4974252;28;20913;-50
2021/01/24 01:32:40;;;;;;;0.93;0.70;;;2.70;99.90;;;;;;4974299;28;20467;-51
2021/01/24 01:35:08;;;;;;;1.20;1.00;;;2.60;99.90;;;;;;4974367;28;20531;-50
2021/01/24 01:37:34;;;;;;;2.27;0.90;;;2.60;99.90;;;;;;4974238;28;20459;-50
2021/01/24 01:40:02;;;;;;;2.17;1.03;;;2.40;99.90;;;;;;4974366;28;20451;-50
2021/01/24 01:42:29;;;;;;;1.20;1.00;;;2.30;99.90;;;;;;4974053;28;20448;-50
2021/01/24 01:44:55;;;;;;;1.20;1.00;;;2.30;99.90;;;;;;4973909;28;20451;-50
2021/01/24 01:47:23;;;;;;;1.20;1.00;;;2.30;99.90;;;;;;4973466;28;20447;-50
2021/01/24 01:49:50;;;;;;;2.50;1.27;;;2.20;99.90;;;;;;4974254;28;20455;-50
2021/01/24 01:52:18;;;;;;;1.40;1.30;;;2.20;99.90;;;;;;4974157;28;20456;-50
2021/01/24 01:54:47;;;;;;;1.00;0.90;;;2.50;99.90;;;;;;4973857;28;20817;-50
2021/01/24 01:57:15;;;;;;;1.23;1.00;;;2.60;99.90;;;;;;4973706;28;20454;-49
2021/01/24 01:59:41;;;;;;;1.73;0.80;;;2.50;99.90;;;;;;4973898;28;20455;-50
2021/01/24 02:02:15;;;;;;;1.00;0.80;;;2.10;99.90;;;;;;4973646;28;20499;-50
2021/01/24 02:04:50;;;;;;;1.30;1.00;;;2.30;99.90;;;;;;4973476;28;20448;-50
2021/01/24 02:07:20;;;;;;;1.70;0.97;;;2.20;99.90;;;;;;4973893;28;20458;-50
2021/01/24 02:09:56;;;;;;;2.10;1.27;;;2.20;99.90;;;;;;4973891;28;20451;-50
2021/01/24 02:12:32;;;;;;;1.07;0.97;;;2.10;99.90;;;;;;4973542;28;20553;-50
2021/01/24 02:15:02;;;;;;;1.23;1.10;;;2.00;99.90;;;;;;4973214;28;20475;-50
2021/01/24 02:17:32;;;;;;;1.00;0.87;;;2.00;99.90;;;;;;4973339;28;20463;-50
2021/01/24 02:20:07;;;;;;;1.30;1.00;;;1.80;99.90;;;;;;4973797;28;20462;-50
2021/01/24 02:22:37;;;;;;;1.20;1.10;;;1.80;99.90;;;;;;4974054;28;20529;-50
2021/01/24 02:25:12;;;;;;;1.33;1.23;;;1.90;99.90;;;;;;4972946;28;20911;-50
2021/01/24 02:27:43;;;;;;;1.67;1.50;;;2.10;99.90;;;;;;5008850;23;20608;-51
2021/01/24 02:30:29;;;;;;;1.83;1.40;;;2.00;99.90;;;;;;4992432;28;20822;-51
2021/01/24 02:33:02;;;;;;;2.60;1.33;;;2.00;99.90;;;;;;4973716;28;20536;-51
2021/01/24 02:35:31;;;;;;;3.43;1.27;;;1.90;99.90;;;;;;4973171;28;21025;-51
2021/01/24 02:38:01;;;;;;;1.77;1.47;;;1.80;99.90;;;;;;4973346;28;20469;-51
2021/01/24 02:40:29;;;;;;;2.10;1.30;;;1.70;99.90;;;;;;4972640;28;20458;-51
2021/01/24 02:42:56;;;;;;;1.20;1.10;;;1.70;99.90;;;;;;4972182;28;20450;-51
2021/01/24 02:45:23;;;;;;;1.47;1.37;;;1.70;99.90;;;;;;4972913;28;20455;-51
2021/01/24 02:47:53;;;;;;;1.70;1.60;;;1.70;99.90;;;;;;4973341;28;20525;-51
2021/01/24 02:50:21;;;;;;;1.57;1.40;;;1.70;99.90;;;;;;4973064;28;20452;-52
2021/01/24 02:52:48;;;;;;;2.33;1.40;;;1.50;99.90;;;;;;4973096;28;20462;-51
2021/01/24 02:55:16;;;;;;;1.87;1.43;;;1.60;99.90;;;;;;4972433;28;20461;-51
2021/01/24 02:57:43;;;;;;;2.10;1.90;;;1.50;99.90;;;;;;4972393;28;20478;-51
2021/01/24 03:00:11;;;;;;;3.87;2.27;;;1.50;99.90;;;;;;4972554;28;20462;-51
2021/01/24 03:02:37;;;;;;;2.10;1.73;;;1.50;99.90;;;;;;4972057;28;20454;-51
2021/01/24 03:05:06;;;;;;;3.60;1.70;;;1.40;99.90;;;;;;4972899;28;20490;-52
2021/01/24 03:07:33;;;;;;;2.00;1.80;;;1.40;99.90;;;;;;4972720;28;20482;-51
2021/01/24 03:09:59;;;;;;;2.60;1.83;;;1.50;99.90;;;;;;4972153;28;20462;-51
2021/01/24 03:12:32;;;;;;;2.13;1.90;;;1.50;99.90;;;;;;4972566;28;20975;-51
2021/01/24 03:14:59;;;;;;;1.70;1.60;;;1.50;99.90;;;;;;4972505;28;20463;-51
2021/01/24 03:17:28;;;;;;;6.93;2.00;;;1.50;99.90;;;;;;4972768;28;20553;-51
2021/01/24 03:19:55;;;;;;;2.17;1.97;;;1.60;99.90;;;;;;4972867;28;20828;-51
2021/01/24 03:22:23;;;;;;;1.93;1.50;;;1.60;99.90;;;;;;4972755;28;20457;-51
2021/01/24 03:24:52;;;;;;;2.27;1.60;;;1.60;99.90;;;;;;4971752;28;20462;-51
2021/01/24 03:27:19;;;;;;;2.07;1.87;;;1.70;99.90;;;;;;4972302;28;20490;-52
2021/01/24 03:29:46;;;;;;;1.70;1.57;;;1.60;99.90;;;;;;4972164;28;21167;-51
2021/01/24 03:32:13;;;;;;;1.30;1.20;;;1.70;99.90;;;;;;4972349;28;20978;-51
2021/01/24 03:34:39;;;;;;;1.83;1.40;;;1.70;99.90;;;;;;4972373;28;20452;-52
2021/01/24 03:37:06;;;;;;;2.90;1.30;;;1.70;99.90;;;;;;4972135;28;20517;-51
2021/01/24 03:39:33;;;;;;;1.50;1.40;;;1.70;99.90;;;;;;4972056;28;20475;-51
2021/01/24 03:42:00;;;;;;;1.33;1.23;;;1.60;99.90;;;;;;4972346;28;20466;-52
2021/01/24 03:44:26;;;;;;;2.00;1.37;;;1.70;99.90;;;;;;4971238;28;20470;-51
2021/01/24 03:46:53;;;;;;;2.30;1.17;;;1.70;99.90;;;;;;4972315;28;20474;-52
2021/01/24 03:49:21;;;;;;;1.40;1.30;;;1.80;99.90;;;;;;4971854;28;20486;-51
2021/01/24 03:51:47;;;;;;;1.60;1.50;;;1.90;99.90;;;;;;4953075;29;21022;-51
2021/01/24 03:54:14;;;;;;;1.20;1.10;;;1.80;99.90;;;;;;4967913;28;20458;-52
2021/01/24 03:56:41;;;;;;;1.00;0.90;;;1.90;99.90;;;;;;4972100;28;20980;-52
2021/01/24 03:59:08;;;;;;;1.20;1.10;;;1.90;99.90;;;;;;4972134;28;20477;-52
2021/01/24 04:01:35;;;;;;;1.47;1.30;;;2.10;99.90;;;;;;4971750;28;20975;-52
2021/01/24 04:04:02;;;;;;;0.80;0.80;;;2.20;99.90;;;;;;4971804;28;20501;-51
2021/01/24 04:06:28;;;;;;;0.80;0.80;;;2.30;99.90;;;;;;4971820;28;20538;-52
2021/01/24 04:08:55;;;;;;;1.10;0.87;;;2.50;99.90;;;;;;4971674;28;20487;-51
2021/01/24 04:11:21;;;;;;;1.10;1.00;;;2.20;99.90;;;;;;4971691;28;20458;-51
2021/01/24 04:13:48;;;;;;;2.03;1.00;;;2.30;99.90;;;;;;4971856;28;21148;-51
2021/01/24 04:16:15;;;;;;;0.87;0.80;;;2.40;99.90;;;;;;4975585;28;20840;-51
2021/01/24 04:18:44;;;;;;;1.00;0.87;;;2.40;99.90;;;;;;4975848;28;20509;-51
2021/01/24 04:21:11;;;;;;;0.90;0.80;;;2.50;99.90;;;;;;4975488;28;21031;-52
2021/01/24 04:23:37;;;;;;;0.80;0.80;;;2.40;99.90;;;;;;4975733;28;20464;-51
2021/01/24 04:26:04;;;;;;;0.93;0.83;;;2.40;99.90;;;;;;4975541;28;20454;-52
2021/01/24 04:28:30;;;;;;;1.30;1.10;;;2.20;99.90;;;;;;4975390;28;20506;-51
2021/01/24 04:30:58;;;;;;;1.10;0.90;;;2.10;99.90;;;;;;4975391;28;20976;-51
2021/01/24 04:33:24;;;;;;;1.20;1.10;;;2.10;99.90;;;;;;4975585;28;20459;-52
2021/01/24 04:35:51;;;;;;;1.00;0.90;;;2.00;99.90;;;;;;4975537;28;20525;-52
2021/01/24 04:38:17;;;;;;;1.23;1.13;;;2.00;99.90;;;;;;4966093;28;20471;-52
2021/01/24 04:40:44;;;;;;;1.10;1.00;;;2.00;99.90;;;;;;4970725;28;20949;-51
2021/01/24 04:43:12;;;;;;;1.30;0.90;;;2.20;99.90;;;;;;4956085;29;20455;-51
2021/01/24 04:45:38;;;;;;;0.90;0.90;;;2.20;99.90;;;;;;4961979;28;20969;-51
2021/01/24 04:48:09;;;;;;;2.07;1.33;;;2.40;99.90;;;;;;4955763;29;20491;-51
2021/01/24 04:50:37;;;;;;;1.00;0.83;;;2.40;99.90;;;;;;4959188;28;20470;-51
2021/01/24 04:53:04;;;;;;;1.13;1.03;;;2.40;99.90;;;;;;4974918;28;20451;-51
2021/01/24 04:55:31;;;;;;;1.73;1.10;;;2.40;99.90;;;;;;4975111;28;20458;-51
2021/01/24 04:57:58;;;;;;;1.30;1.20;;;2.30;99.90;;;;;;4962805;28;20464;-51
2021/01/24 05:00:25;;;;;;;1.57;1.47;;;2.50;99.90;;;;;;4971482;28;20455;-52
2021/01/24 05:02:51;;;;;;;1.53;1.43;;;2.50;99.90;;;;;;4975025;28;20455;-51
2021/01/24 05:05:19;;;;;;;1.90;1.40;;;2.30;99.90;;;;;;4974777;28;20447;-51
2021/01/24 05:07:52;;;;;;;1.60;1.40;;;2.40;99.90;;;;;;4974495;28;20471;-52
2021/01/24 05:10:26;;;;;;;1.87;1.37;;;2.30;99.90;;;;;;4975155;28;20542;-51
2021/01/24 05:12:53;;;;;;;1.00;1.00;;;2.30;99.90;;;;;;4974797;28;20450;-51
2021/01/24 05:15:20;;;;;;;1.57;1.27;;;2.60;99.90;;;;;;4974337;28;20458;-51
2021/01/24 05:17:54;;;;;;;1.20;1.10;;;2.70;99.90;;;;;;4974961;28;20466;-51
2021/01/24 05:20:23;;;;;;;1.20;1.10;;;2.70;99.90;;;;;;4974957;28;20458;-51
2021/01/24 05:22:49;;;;;;;1.53;1.43;;;2.50;99.90;;;;;;4974297;28;20482;-51
2021/01/24 05:25:23;;;;;;;2.90;1.83;;;2.60;99.90;;;;;;4973653;28;20514;-51
2021/01/24 05:27:50;;;;;;;1.20;0.97;;;2.60;99.90;;;;;;4974405;28;20490;-51
2021/01/24 05:30:22;;;;;;;1.40;1.13;;;2.10;99.90;;;;;;4973686;28;20454;-52
2021/01/24 05:32:51;;;;;;;2.90;1.10;;;2.00;99.90;;;;;;4974657;28;20590;-51
2021/01/24 05:35:18;;;;;;;1.10;0.90;;;1.90;99.90;;;;;;4974061;28;20555;-51
2021/01/24 05:37:47;;;;;;;1.10;1.00;;;2.00;99.90;;;;;;4974281;28;20475;-50
2021/01/24 05:40:14;;;;;;;1.27;1.00;;;1.90;99.90;;;;;;4974310;28;20542;-51
2021/01/24 05:42:41;;;;;;;1.53;0.80;;;1.80;99.90;;;;;;4974601;28;20514;-51
2021/01/24 05:45:12;;;;;;;1.30;1.20;;;1.80;99.90;;;;;;4973519;28;20465;-51
2021/01/24 05:47:42;;;;;;;2.03;0.97;;;1.80;99.90;;;;;;4974204;28;20479;-51
2021/01/24 05:50:12;;;;;;;1.33;1.10;;;1.80;99.90;;;;;;4973945;28;20545;-51
2021/01/24 05:52:40;;;;;;;1.10;1.00;;;1.80;99.90;;;;;;4974590;28;20459;-51
2021/01/24 05:55:09;;;;;;;1.10;0.80;;;1.80;99.90;;;;;;4973998;28;20902;-51
2021/01/24 05:57:37;;;;;;;1.20;1.07;;;1.90;99.90;;;;;;4974012;28;21016;-51
2021/01/24 06:00:07;;;;;;;0.93;0.80;;;2.00;99.90;;;;;;4973859;28;20463;-51
2021/01/24 06:02:35;;;;;;;1.33;0.80;;;2.00;99.90;;;;;;4974058;28;20461;-51
2021/01/24 06:05:04;;;;;;;0.90;0.90;;;1.90;99.90;;;;;;4974084;28;20559;-51
2021/01/24 06:07:31;;;;;;;1.00;0.90;;;1.90;99.90;;;;;;4973934;28;20467;-51
2021/01/24 06:09:57;;;;;;;1.10;1.00;;;1.90;99.90;;;;;;4973159;28;21050;-51
2021/01/24 06:12:25;;;;;;;0.80;0.80;;;1.90;99.90;;;;;;4973830;28;20454;-51
2021/01/24 06:14:52;;;;;;;1.40;0.80;;;1.90;99.90;;;;;;4973403;28;20486;-50
2021/01/24 06:17:28;;;;;;;0.80;0.80;;;1.90;99.90;;;;;;4973865;28;20506;-51
2021/01/24 06:20:01;;;;;;;1.43;0.90;;;1.90;99.90;;;;;;4973468;28;20860;-51
2021/01/24 06:22:35;;;;;;;1.10;0.90;;;1.90;99.90;;;;;;4973732;28;20497;-51
2021/01/24 06:25:09;;;;;;;1.00;0.87;;;1.80;99.90;;;;;;4971205;28;20463;-51
2021/01/24 06:27:39;;;;;;;0.80;0.73;;;1.80;99.90;;;;;;4969739;28;20486;-51
2021/01/24 06:30:10;;;;;;;1.00;0.90;;;1.70;99.90;;;;;;4972989;28;20486;-51
2021/01/24 06:32:36;;;;;;;0.90;0.90;;;1.70;99.90;;;;;;4973336;28;20458;-51
2021/01/24 06:35:23;;;;;;;0.87;0.87;;;1.70;99.90;;;;;;4972972;28;20948;-51
2021/01/24 06:38:00;;;;;;;1.00;0.80;;;1.70;99.90;;;;;;4972286;28;20837;-50
2021/01/24 06:40:29;;;;;;;1.00;0.90;;;1.70;99.90;;;;;;4973478;28;20465;-51
2021/01/24 06:42:59;;;;;;;0.77;0.77;;;1.70;99.90;;;;;;4973088;28;20899;-51
2021/01/24 06:45:42;;;;;;;1.17;0.97;;;1.70;99.90;;;;;;4972162;28;20456;-51
2021/01/24 06:48:11;;;;;;;0.70;0.67;;;1.70;99.90;;;;;;4973209;28;20492;-51
2021/01/24 06:50:43;;;;;;;0.80;0.80;;;1.70;99.90;;;;;;4973278;28;20548;-51
2021/01/24 06:53:11;;;;;;;1.00;0.90;;;1.70;99.90;;;;;;4973303;28;20449;-51
2021/01/24 06:55:38;;;;;;;1.10;1.00;;;1.70;99.90;;;;;;4972782;28;20878;-51
2021/01/24 06:58:28;;;;;;;1.20;1.03;;;1.60;99.90;;;;;;4972358;28;20544;-50
2021/01/24 07:01:24;;;;;;;0.90;0.90;;;1.70;99.90;;;;;;4971861;28;20455;-51
2021/01/24 07:04:38;;;;;;;1.17;1.07;;;1.70;99.90;;;;;;4972572;28;20462;-51
2021/01/24 07:07:32;;;;;;;1.20;0.93;;;1.60;99.90;;;;;;4971711;28;20994;-51
2021/01/24 07:10:09;;;;;;;0.80;0.80;;;1.60;99.90;;;;;;4972250;28;20501;-51
2021/01/24 07:12:44;;;;;;;1.40;1.30;;;1.50;99.90;;;;;;4972591;28;20466;-51
2021/01/24 07:15:22;;;;;;;1.00;0.90;;;1.40;99.90;;;;;;4983192;28;20475;-51
2021/01/24 07:17:59;;;;;;;1.27;1.17;;;1.40;99.90;;;;;;4953396;29;20675;-51
2021/01/24 07:20:26;;;;;;;1.33;1.20;;;1.40;99.90;;;;;;4957227;28;20473;-51
2021/01/24 07:22:54;;;;;;;1.43;1.33;;;1.40;99.90;;;;;;4972766;28;20454;-51
2021/01/24 07:25:22;;;;;;;2.53;1.27;;;1.30;99.90;;;;;;4967550;28;20467;-51
2021/01/24 07:27:53;;;;;;;1.07;0.97;;;1.20;99.90;;;;;;4956185;28;21048;-51
2021/01/24 07:30:27;;;;;;;1.20;1.10;;;1.20;99.90;;;;;;4972691;28;20537;-51
2021/01/24 07:32:54;;;;;;;1.40;1.30;;;1.30;99.90;;;;;;4972463;28;20454;-51
2021/01/24 07:35:22;;;;;;;1.67;1.50;;;1.40;99.90;;;;;;4971893;28;20512;-51
2021/01/24 07:37:50;;;;;;;3.20;2.27;;;1.30;99.90;;;;;;4971263;28;20564;-51
2021/01/24 07:40:19;;;;;;;1.70;1.50;;;1.30;99.90;;;;;;4971733;28;20457;-51
2021/01/24 07:42:47;;;;;;;9.07;5.00;;;1.30;99.90;;;;;;4972029;28;20482;-51
2021/01/24 07:45:14;;;;;;;6.33;4.70;;;1.30;99.90;;;;;;4971681;28;20549;-51
2021/01/24 07:47:41;;;;;;;1.63;1.40;;;1.40;99.90;;;;;;4952943;29;20890;-51
2021/01/24 07:50:09;;;;;;;1.40;1.30;;;1.30;99.90;;;;;;4954261;28;20956;-51
2021/01/24 07:52:35;;;;;;;0.93;0.90;;;1.40;99.90;;;;;;4972203;28;20450;-51
2021/01/24 07:55:03;;;;;;;1.20;1.20;;;1.40;99.90;;;;;;4971457;28;20450;-50
2021/01/24 07:57:30;;;;;;;1.40;1.30;;;1.40;99.90;;;;;;4971027;28;20478;-51
2021/01/24 07:59:56;;;;;;;2.40;2.10;;;1.40;99.90;;;;;;4971818;28;20501;-51
2021/01/24 08:02:23;;;;;;;2.43;1.83;;;1.30;99.90;;;;;;4970779;28;20461;-51
2021/01/24 08:04:52;;;;;;;2.00;1.90;;;1.30;99.90;;;;;;4954183;28;20471;-51
2021/01/24 08:07:18;;;;;;;1.93;1.70;;;1.30;99.90;;;;;;4971712;28;20482;-51
2021/01/24 08:09:47;;;;;;;1.87;1.73;;;1.40;99.90;;;;;;4971276;28;21036;-51
2021/01/24 08:12:14;;;;;;;1.60;1.50;;;1.50;99.90;;;;;;4970515;28;20463;-51
2021/01/24 08:14:41;;;;;;;3.30;1.80;;;1.60;99.90;;;;;;4971464;28;20461;-51
2021/01/24 08:17:12;;;;;;;2.93;1.30;;;1.70;99.90;;;;;;4971676;28;20614;-51
2021/01/24 08:19:39;;;;;;;2.30;1.70;;;1.80;99.90;;;;;;4971709;28;20450;-51
2021/01/24 08:22:06;;;;;;;1.53;1.43;;;1.80;99.90;;;;;;4967751;28;20459;-51
2021/01/24 08:24:34;;;;;;;2.47;1.30;;;1.90;99.90;;;;;;4970564;28;20451;-52
2021/01/24 08:27:00;;;;;;;1.83;0.97;;;1.80;99.90;;;;;;4969796;28;21059;-51
2021/01/24 08:29:34;;;;;;;1.80;1.00;;;1.70;99.90;;;;;;4992945;23;20502;-49
2021/01/24 08:32:01;;;;;;;1.97;1.40;;;1.60;99.90;;;;;;4971032;28;20456;-49
2021/01/24 08:34:29;;;;;;;2.10;1.40;;;1.60;99.90;;;;;;4971331;28;20446;-50
2021/01/24 08:36:56;;;;;;;1.33;1.23;;;1.70;99.90;;;;;;4969598;28;20466;-50
2021/01/24 08:39:24;;;;;;;1.57;1.43;;;1.80;99.90;;;;;;4971262;28;20470;-50
2021/01/24 08:41:52;;;;;;;2.03;1.53;;;1.80;99.90;;;;;;4970728;28;20468;-49
2021/01/24 08:44:19;;;;;;;5.67;1.47;;;1.80;99.90;;;;;;4964260;28;20553;-50
2021/01/24 08:46:47;;;;;;;1.90;1.40;;;1.80;99.90;;;;;;4970717;28;20458;-50
2021/01/24 08:49:20;;;;;;;2.63;1.40;;;1.90;99.90;;;;;;4969910;28;20736;-50
2021/01/24 08:51:52;;;;;;;1.93;1.60;;;2.00;99.90;;;;;;4971048;28;20951;-49
2021/01/24 08:54:36;;;;;;;3.50;1.50;;;2.10;99.90;;;;;;4967878;28;20456;-49
2021/01/24 08:57:14;;;;;;;1.27;1.00;;;2.10;99.90;;;;;;4943934;28;20895;-49
2021/01/24 08:59:57;;;;;;;4.00;2.30;;;2.10;99.90;;;;;;4970212;28;20494;-49
2021/01/24 09:02:28;;;;;;;3.57;2.23;;;2.20;99.90;;;;;;4974644;28;20467;-50
2021/01/24 09:04:55;;;;;;;2.87;2.00;;;2.30;99.90;;;;;;4974354;28;20462;-50
2021/01/24 09:07:21;;;;;;;5.73;2.37;;;2.30;99.90;;;;;;4973593;28;20510;-49
2021/01/24 09:09:52;;;;;;;2.13;1.53;;;2.30;99.90;;;;;;4974582;28;20525;-49
2021/01/24 09:12:20;;;;;;;6.07;1.60;;;2.30;99.90;;;;;;4974191;28;20483;-50
2021/01/24 09:14:47;;;;;;;4.80;2.10;;;2.30;99.90;;;;;;4974003;28;20462;-50
2021/01/24 09:17:15;;;;;;;2.67;1.70;;;2.40;99.90;;;;;;4974180;28;20681;-50
2021/01/24 09:19:43;;;;;;;1.73;1.40;;;2.40;99.90;;;;;;4973853;28;20537;-50
2021/01/24 09:22:11;;;;;;;1.73;1.27;;;2.40;99.90;;;;;;4970018;28;20465;-49
2021/01/24 09:24:38;;;;;;;1.60;1.20;;;2.50;99.90;;;;;;4975119;28;20461;-49
2021/01/24 09:27:07;;;;;;;2.83;1.57;;;2.70;99.90;;;;;;4971522;28;20828;-49
2021/01/24 09:29:33;;;;;;;1.60;1.50;;;2.80;99.90;;;;;;4973303;28;20872;-50
2021/01/24 09:32:00;;;;;;;1.40;1.10;;;2.90;99.90;;;;;;4973714;28;20459;-49
2021/01/24 09:34:26;;;;;;;1.50;1.30;;;3.10;99.90;;;;;;4974096;28;20514;-49
2021/01/24 09:36:53;;;;;;;2.07;1.20;;;3.20;99.90;;;;;;4974357;28;20455;-49
2021/01/24 09:39:20;;;;;;;2.90;1.80;;;3.30;99.90;;;;;;4973785;28;20490;-49
2021/01/24 09:41:46;;;;;;;2.67;1.43;;;3.50;99.90;;;;;;4974353;28;20462;-49
2021/01/24 09:44:14;;;;;;;2.10;1.50;;;3.60;99.90;;;;;;4974416;28;20847;-49
2021/01/24 09:46:40;;;;;;;4.13;2.20;;;3.80;99.90;;;;;;4974536;28;20506;-49
2021/01/24 09:49:07;;;;;;;3.50;2.33;;;4.00;99.90;;;;;;4974061;28;20561;-49
2021/01/24 09:51:34;;;;;;;2.57;1.80;;;4.10;99.90;;;;;;4973930;28;20455;-49
2021/01/24 09:54:01;;;;;;;3.23;1.97;;;4.00;99.90;;;;;;4973598;28;20971;-50
2021/01/24 09:56:28;;;;;;;3.30;2.50;;;4.10;99.90;;;;;;4973615;28;20463;-49
2021/01/24 09:58:56;;;;;;;1.43;1.33;;;4.30;99.90;;;;;;4973577;28;20471;-49
2021/01/24 10:01:24;;;;;;;1.80;1.70;;;4.30;99.90;;;;;;4972495;28;20459;-49
2021/01/24 10:03:51;;;;;;;2.60;1.93;;;4.00;99.90;;;;;;4972958;28;20459;-50
2021/01/24 10:06:20;;;;;;;2.90;1.33;;;4.30;99.90;;;;;;4973394;28;20840;-50
2021/01/24 10:08:47;;;;;;;2.03;1.60;;;4.50;99.90;;;;;;4973548;28;20495;-49
2021/01/24 10:11:13;;;;;;;2.63;2.30;;;4.40;99.90;;;;;;4972154;28;20448;-48
2021/01/24 10:13:41;;;;;;;5.50;2.70;;;4.30;99.90;;;;;;4957838;28;20811;-49
2021/01/24 10:16:08;;;;;;;1.70;1.60;;;4.10;99.90;;;;;;4971598;28;20482;-49
2021/01/24 10:18:36;;;;;;;1.90;1.80;;;4.20;99.90;;;;;;4966786;28;20447;-50
2021/01/24 10:21:04;;;;;;;3.00;1.90;;;4.30;99.90;;;;;;4972771;28;20459;-50
2021/01/24 10:23:30;;;;;;;2.50;1.60;;;4.50;99.90;;;;;;4973338;28;20514;-49
2021/01/24 10:25:57;;;;;;;1.63;1.37;;;4.80;99.90;;;;;;4978587;28;20438;-49
2021/01/24 10:28:24;;;;;;;3.67;2.13;;;5.10;99.90;;;;;;4975716;28;20451;-49
2021/01/24 10:30:51;;;;;;;5.10;2.60;;;5.40;99.90;;;;;;4959672;28;20507;-50
2021/01/24 10:33:19;;;;;;;2.27;1.60;;;6.20;99.90;;;;;;4964912;28;20530;-50
2021/01/24 10:35:47;;;;;;;2.00;1.80;;;6.90;99.90;;;;;;4954251;28;20446;-50
2021/01/24 10:38:16;;;;;;;2.90;2.30;;;7.70;99.90;;;;;;4970898;28;20501;-50
2021/01/24 10:40:43;;;;;;;2.80;1.80;;;8.00;99.90;;;;;;4968814;28;20475;-50
2021/01/24 10:43:10;;;;;;;3.00;1.80;;;7.70;99.90;;;;;;4961706;28;20444;-50
2021/01/24 10:45:38;;;;;;;2.20;1.97;;;7.30;99.90;;;;;;4969688;28;20447;-50
2021/01/24 10:48:06;;;;;;;3.30;1.93;;;7.20;99.90;;;;;;4961024;28;20531;-50
2021/01/24 10:50:35;;;;;;;1.40;1.30;;;7.40;99.90;;;;;;4972053;28;20494;-50
2021/01/24 10:53:03;;;;;;;1.40;1.20;;;7.10;99.20;;;;;;4972863;28;20451;-50
2021/01/24 10:55:30;;;;;;;2.20;1.40;;;6.80;99.60;;;;;;4971832;28;20524;-50
2021/01/24 10:57:56;;;;;;;3.53;2.40;;;7.40;99.50;;;;;;4961823;28;20976;-50
2021/01/24 11:00:23;;;;;;;20.37;6.30;;;8.00;98.80;;;;;;4968580;28;20475;-51
2021/01/24 11:02:50;;;;;;;9.73;3.57;;;8.00;97.40;;;;;;4973084;28;20822;-49
2021/01/24 11:05:16;;;;;;;9.73;3.77;;;6.20;98.50;;;;;;4972874;28;20519;-49
2021/01/24 11:07:43;;;;;;;16.70;6.30;;;6.30;99.90;;;;;;4970577;28;20457;-49
2021/01/24 11:10:12;;;;;;;5.57;2.93;;;6.20;99.90;;;;;;4957972;28;20861;-50
2021/01/24 11:12:39;;;;;;;3.37;1.90;;;6.40;99.50;;;;;;4973047;28;20455;-49
2021/01/24 11:15:07;;;;;;;1.70;1.60;;;6.60;99.20;;;;;;4972443;28;20967;-49
2021/01/24 11:17:33;;;;;;;1.70;1.50;;;5.90;99.90;;;;;;4972712;28;20457;-49
2021/01/24 11:20:00;;;;;;;2.03;1.70;;;6.00;99.90;;;;;;4971374;28;20465;-49
2021/01/24 11:22:27;;;;;;;1.67;1.50;;;6.00;99.90;;;;;;4971687;28;20199;-49
2021/01/24 11:24:54;;;;;;;3.63;1.53;;;5.80;99.90;;;;;;4971105;28;20969;-49
2021/01/24 11:27:21;;;;;;;1.93;1.60;;;5.80;99.90;;;;;;4972112;28;20455;-49
2021/01/24 11:29:48;;;;;;;2.70;1.90;;;5.80;99.90;;;;;;4971417;28;20498;-49
2021/01/24 11:32:14;;;;;;;1.53;1.30;;;5.80;99.90;;;;;;4971919;28;20937;-49
2021/01/24 11:34:41;;;;;;;1.53;1.43;;;6.10;99.90;;;;;;4971215;28;20512;-49
2021/01/24 11:37:07;;;;;;;2.63;1.73;;;6.00;99.90;;;;;;4970931;28;20988;-49
2021/01/24 11:39:35;;;;;;;2.80;1.60;;;6.20;99.30;;;;;;4966329;28;20499;-49
2021/01/24 11:42:03;;;;;;;2.70;1.43;;;6.00;99.90;;;;;;4952416;29;20555;-49
2021/01/24 11:44:30;;;;;;;3.13;1.40;;;5.60;99.90;;;;;;4952081;29;20463;-49
2021/01/24 11:46:57;;;;;;;2.23;1.60;;;5.60;99.40;;;;;;4952596;29;20452;-49
2021/01/24 11:49:24;;;;;;;3.33;1.43;;;5.80;99.10;;;;;;4953373;28;20520;-48
2021/01/24 11:51:50;;;;;;;1.70;1.40;;;5.80;99.10;;;;;;4955316;28;20454;-48
2021/01/24 11:54:17;;;;;;;2.00;1.40;;;5.60;99.80;;;;;;4964077;28;20452;-49
2021/01/24 11:56:44;;;;;;;2.10;1.33;;;5.40;99.90;;;;;;4956429;28;20510;-49
2021/01/24 11:59:10;;;;;;;1.93;1.67;;;5.00;99.90;;;;;;4971786;28;20471;-49
2021/01/24 12:01:40;;;;;;;1.10;1.10;;;5.00;99.90;;;;;;4971214;28;20455;-48
2021/01/24 12:04:07;;;;;;;1.43;1.27;;;5.10;99.90;;;;;;4973616;28;20500;-49
2021/01/24 12:06:33;;;;;;;1.40;1.30;;;5.10;99.90;;;;;;4990991;28;20508;-49
2021/01/24 12:09:00;;;;;;;1.40;1.30;;;5.10;99.90;;;;;;4978677;28;20490;-49
2021/01/24 12:11:27;;;;;;;2.20;1.57;;;5.40;99.90;;;;;;4968389;28;20459;-49
2021/01/24 12:13:53;;;;;;;3.87;1.50;;;5.30;99.90;;;;;;4952033;28;20547;-49
2021/01/24 12:16:21;;;;;;;1.30;1.20;;;5.60;99.90;;;;;;4952359;29;20463;-48
2021/01/24 12:18:50;;;;;;;2.27;1.10;;;5.80;99.40;;;;;;4952190;28;21145;-48
2021/01/24 12:21:17;;;;;;;1.43;1.30;;;6.00;98.70;;;;;;4970978;28;20456;-49
2021/01/24 12:23:43;;;;;;;1.30;1.20;;;6.00;99.00;;;;;;4971078;28;20459;-48
2021/01/24 12:26:10;;;;;;;1.47;1.10;;;5.80;98.40;;;;;;4965596;28;20543;-49
2021/01/24 12:28:36;;;;;;;2.10;1.63;;;5.60;99.00;;;;;;4966676;28;20452;-49
2021/01/24 12:31:03;;;;;;;1.13;1.03;;;5.90;99.00;;;;;;4969107;28;20459;-48
2021/01/24 12:33:31;;;;;;;2.27;1.33;;;5.90;98.10;;;;;;4971075;28;20451;-49
2021/01/24 12:36:01;;;;;;;1.40;1.30;;;6.10;97.90;;;;;;4964499;28;20452;-48
2021/01/24 12:38:29;;;;;;;1.53;1.20;;;5.80;98.90;;;;;;4955597;29;20488;-49
2021/01/24 12:40:55;;;;;;;1.20;1.10;;;5.70;97.40;;;;;;4971745;28;20517;-48
2021/01/24 12:43:22;;;;;;;2.83;1.27;;;5.80;98.20;;;;;;4975140;28;20495;-48
2021/01/24 12:45:48;;;;;;;1.63;1.10;;;6.00;96.30;;;;;;4973535;28;20451;-49
2021/01/24 12:48:15;;;;;;;2.40;1.73;;;5.50;96.10;;;;;;4974958;28;20968;-49
2021/01/24 12:50:42;;;;;;;1.70;1.47;;;5.40;96.70;;;;;;4975073;28;20491;-48
2021/01/24 12:53:09;;;;;;;1.80;1.23;;;5.70;96.80;;;;;;4974385;28;20454;-48
2021/01/24 12:55:36;;;;;;;1.50;1.40;;;5.80;96.30;;;;;;4975524;28;20466;-48
2021/01/24 12:58:02;;;;;;;14.13;8.00;;;5.80;96.50;;;;;;4975449;28;20455;-48
2021/01/24 13:00:29;;;;;;;3.57;2.80;;;5.40;97.40;;;;;;4975161;28;20494;-48
2021/01/24 13:02:55;;;;;;;4.63;1.37;;;5.20;97.50;;;;;;4975076;28;20460;-48
2021/01/24 13:05:22;;;;;;;1.50;1.40;;;5.60;98.30;;;;;;4974410;28;20443;-49